Time;durP1;ratioP1;P1;durP2;ratioP2;P2;SDS_P1;SDS_P2;PMS_P1;PMS_P2;Temp;Humidity;BMP_temperature;BMP_pressure;BME280_temperature;BME280_humidity;BME280_pressure;Samples;Min_cycle;Max_cycle;Signal;HPM_P1;HPM_P2
2023/03/14 00:02:02;;;;;;;5.00;2.28;;;;;;;9.77;100.00;98429.88;4983993;28;20045;-87
2023/03/14 00:04:31;;;;;;;3.22;1.90;;;;;;;9.73;100.00;98423.16;5011209;28;20057;-88
2023/03/14 00:06:58;;;;;;;3.80;1.95;;;;;;;9.56;100.00;98398.00;4974756;28;20062;-88
2023/03/14 00:09:49;;;;;;;;;;;;;;;9.85;100.00;98459.25;4981640;28;20559;-87
2023/03/14 00:12:16;;;;;;;3.83;1.90;;;;;;;9.77;100.00;98448.38;4993775;28;19924;-88
2023/03/14 00:14:48;;;;;;;3.33;2.00;;;;;;;9.77;100.00;98448.38;5022374;28;20045;-87
2023/03/14 00:17:17;;;;;;;2.47;1.70;;;;;;;9.65;100.00;98446.66;5027904;28;20072;-88
2023/03/14 00:19:45;;;;;;;5.70;1.90;;;;;;;9.79;100.00;98460.53;5027680;28;20160;-87
2023/03/14 00:22:13;;;;;;;6.13;1.88;;;;;;;9.69;100.00;98445.50;5029027;28;20477;-86
2023/03/14 00:24:43;;;;;;;3.70;1.52;;;;;;;9.68;100.00;98452.56;5032548;28;20125;-89
2023/03/14 00:27:14;;;;;;;2.00;1.50;;;;;;;9.73;100.00;98457.53;5025821;28;20044;-87
2023/03/14 00:29:42;;;;;;;2.38;1.27;;;;;;;9.69;100.00;98450.78;5015050;28;20042;-86
2023/03/14 00:32:10;;;;;;;5.10;1.50;;;;;;;9.77;100.00;98451.03;5022474;28;20073;-89
2023/03/14 00:35:04;;;;;;;3.25;1.50;;;;;;;9.69;100.00;98462.19;5016113;28;20482;-88
2023/03/14 00:37:37;;;;;;;3.13;1.20;;;;;;;9.38;100.00;98412.56;5020702;28;20149;-88
2023/03/14 00:40:26;;;;;;;3.33;1.10;;;;;;;9.51;100.00;98426.56;5015521;28;20118;-88
2023/03/14 00:43:12;;;;;;;3.28;1.15;;;;;;;9.64;100.00;98447.63;5009371;28;20217;-90
2023/03/14 00:46:14;;;;;;;2.45;1.17;;;;;;;9.47;100.00;98422.44;5034584;28;20054;-89
2023/03/14 00:49:01;;;;;;;4.35;1.77;;;;;;;9.63;100.00;98430.91;5019036;28;20529;-89
2023/03/14 00:51:28;;;;;;;1.73;1.00;;;;;;;9.57;100.00;98409.41;5044158;28;20396;-88
2023/03/14 00:54:00;;;;;;;3.50;1.30;;;;;;;9.67;100.00;98418.31;5017359;28;20087;-89
2023/03/14 00:56:30;;;;;;;4.82;1.23;;;;;;;9.65;100.00;98413.16;5001243;28;20316;-89
2023/03/14 00:59:06;;;;;;;4.68;1.27;;;;;;;9.61;100.00;98401.13;4982585;28;20085;-89
2023/03/14 01:01:50;;;;;;;3.80;0.88;;;;;;;9.47;100.00;98370.44;4997158;28;20495;-91
2023/03/14 01:04:48;;;;;;;6.78;1.35;;;;;;;9.55;100.00;98400.75;4997856;28;20054;-90
2023/03/14 01:07:36;;;;;;;7.28;1.10;;;;;;;9.56;100.00;98405.09;5016892;28;20081;-90
2023/03/14 01:10:15;;;;;;;2.70;1.05;;;;;;;9.59;100.00;98412.78;5013468;28;20573;-90
2023/03/14 01:12:59;;;;;;;3.92;1.20;;;;;;;9.55;100.00;98419.25;5013438;28;20125;-90
2023/03/14 01:15:31;;;;;;;5.22;1.23;;;;;;;9.54;100.00;98414.91;5023225;28;20045;-92
2023/03/14 01:18:05;;;;;;;4.03;1.00;;;;;;;9.51;100.00;98421.25;5024847;28;20038;-91
2023/03/14 01:20:45;;;;;;;2.70;1.33;;;;;;;9.43;100.00;98416.56;5023481;28;20042;-92
2023/03/14 01:23:19;;;;;;;4.05;1.17;;;;;;;9.59;100.00;98447.13;5018210;28;20045;-90
2023/03/14 01:25:50;;;;;;;4.95;1.08;;;;;;;9.63;100.00;98435.34;5005639;28;20038;-91
2023/03/14 01:28:35;;;;;;;3.17;1.20;;;;;;;9.68;100.00;98430.59;5014693;28;20067;-91
2023/03/14 01:31:23;;;;;;;2.70;1.27;;;;;;;9.50;100.00;98399.28;5025274;28;20099;-90
2023/03/14 01:33:58;;;;;;;4.10;1.17;;;;;;;9.68;100.00;98414.72;5020565;28;20057;-90
2023/03/14 01:36:30;;;;;;;4.60;1.05;;;;;;;9.49;100.00;98375.63;5014051;28;20037;-90
2023/03/14 01:39:14;;;;;;;4.55;0.93;;;;;;;9.81;100.00;98418.13;5016263;28;20056;-90
2023/03/14 01:41:59;;;;;;;3.28;1.10;;;;;;;9.56;100.00;98368.94;5019982;28;20077;-88
2023/03/14 01:44:59;;;;;;;3.80;1.00;;;;;;;9.81;100.00;98408.41;4998145;28;20076;-91
2023/03/14 01:47:44;;;;;;;3.92;1.30;;;;;;;9.77;100.00;98401.66;4974116;28;20105;-91
2023/03/14 01:50:15;;;;;;;2.77;0.93;;;;;;;9.74;100.00;98390.50;4983833;28;20046;-93
2023/03/14 01:52:49;;;;;;;6.30;1.02;;;;;;;9.75;100.00;98376.31;5018455;28;20093;-92
2023/03/14 01:55:25;;;;;;;1.77;0.90;;;;;;;9.77;100.00;98375.22;5034204;28;20044;-93
2023/03/14 01:58:03;;;;;;;3.85;1.00;;;;;;;9.78;100.00;98381.34;5056411;28;20074;-93
2023/03/14 02:00:33;;;;;;;2.20;0.90;;;;;;;9.79;100.00;98377.75;5034933;28;20041;-91
2023/03/14 02:03:32;;;;;;;3.25;0.90;;;;;;;9.66;100.00;98358.50;5016194;28;20049;-92
2023/03/14 02:06:08;;;;;;;2.15;0.98;;;;;;;9.59;100.00;98349.38;5032694;28;20069;-92
2023/03/14 02:08:53;;;;;;;4.78;1.25;;;;;;;9.61;100.00;98336.84;5037243;28;20072;-93
2023/03/14 02:11:49;;;;;;;4.55;1.05;;;;;;;9.64;100.00;98323.41;5032149;28;20057;-92
2023/03/14 02:14:34;;;;;;;3.22;0.95;;;;;;;9.55;100.00;98309.13;5028549;28;20034;-92
2023/03/14 02:17:09;;;;;;;4.18;1.02;;;;;;;9.88;100.00;98337.41;5032533;28;20040;-92
2023/03/14 02:20:29;;;;;;;1.88;1.15;;;;;;;9.84;100.00;98333.31;5025893;28;20080;-92
2023/03/14 02:23:00;;;;;;;2.63;1.10;;;;;;;9.87;100.00;98343.66;5057479;28;20048;-93
2023/03/14 02:26:03;;;;;;;4.93;1.23;;;;;;;9.69;100.00;98303.63;5022126;28;20045;-92
2023/03/14 02:28:55;;;;;;;4.85;1.50;;;;;;;9.90;100.00;98319.66;5027778;28;20040;-92
2023/03/14 02:31:45;;;;;;;3.47;1.15;;;;;;;9.93;100.00;98315.91;5024292;28;20096;-91
2023/03/14 02:34:17;;;;;;;4.10;1.00;;;;;;;9.74;100.00;98284.78;5043722;28;20053;-90
2023/03/14 02:36:47;;;;;;;4.68;1.15;;;;;;;9.93;100.00;98311.44;5018621;28;20046;-91
2023/03/14 02:39:36;;;;;;;4.28;1.20;;;;;;;9.92;100.00;98303.63;5024432;28;20053;-91
2023/03/14 02:42:04;;;;;;;5.10;1.48;;;;;;;9.84;100.00;98310.38;5005662;28;20068;-89
2023/03/14 02:44:35;;;;;;;2.10;1.00;;;;;;;9.78;100.00;98304.69;5039284;28;20026;-93
2023/03/14 02:47:04;;;;;;;5.45;0.88;;;;;;;9.72;100.00;98318.41;5041215;28;20048;-90
2023/03/14 02:49:35;;;;;;;4.72;1.20;;;;;;;9.72;100.00;98336.91;5011262;28;20050;-88
2023/03/14 02:52:09;;;;;;;3.17;1.20;;;;;;;9.71;100.00;98344.00;5045601;28;20052;-88
2023/03/14 02:54:41;;;;;;;3.65;1.10;;;;;;;9.67;100.00;98321.38;5033637;28;20041;-89
2023/03/14 02:57:32;;;;;;;4.63;1.20;;;;;;;9.79;100.00;98351.31;5047220;28;20034;-91
2023/03/14 03:00:13;;;;;;;2.63;1.10;;;;;;;9.77;100.00;98338.22;5060975;28;20034;-90
2023/03/14 03:02:52;;;;;;;5.00;1.10;;;;;;;9.77;100.00;98340.03;5040547;28;20041;-91
2023/03/14 03:05:31;;;;;;;4.13;1.10;;;;;;;9.80;100.00;98331.88;5018147;28;20033;-92
2023/03/14 03:08:11;;;;;;;4.22;1.00;;;;;;;9.56;100.00;98286.19;5037002;28;20108;-88
2023/03/14 03:10:42;;;;;;;7.65;1.00;;;;;;;9.77;100.00;98316.22;5040257;28;20067;-91
2023/03/14 03:13:12;;;;;;;5.30;1.17;;;;;;;9.90;100.00;98324.94;5038957;28;20026;-89
2023/03/14 03:15:40;;;;;;;3.33;1.10;;;;;;;9.90;100.00;98332.03;5036106;28;20228;-89
2023/03/14 03:18:11;;;;;;;7.68;1.35;;;;;;;9.64;100.00;98289.06;5037737;28;20097;-87
2023/03/14 03:20:40;;;;;;;3.58;1.00;;;;;;;9.70;100.00;98288.59;5032975;28;20049;-90
2023/03/14 03:23:25;;;;;;;2.65;1.00;;;;;;;9.89;100.00;98333.81;5038029;28;20046;-91
2023/03/14 03:25:55;;;;;;;;;;;;;;;9.82;100.00;98317.56;5013580;28;20045;-90
2023/03/14 03:28:26;;;;;;;4.90;0.90;;;;;;;9.77;100.00;98284.50;5033553;28;19975;-93
2023/03/14 03:31:25;;;;;;;6.45;1.20;;;;;;;9.76;100.00;98306.63;5024130;28;20045;-90
2023/03/14 03:34:01;;;;;;;4.60;1.13;;;;;;;9.65;100.00;98296.88;5059537;28;20045;-90
2023/03/14 03:36:35;;;;;;;4.47;1.23;;;;;;;9.67;100.00;98283.56;5047972;28;20152;-91
2023/03/14 03:39:08;;;;;;;6.18;1.35;;;;;;;9.68;100.00;98295.81;5036074;28;20033;-91
2023/03/14 03:41:39;;;;;;;4.32;0.98;;;;;;;9.75;100.00;98282.03;5023765;28;20037;-90
2023/03/14 03:44:09;;;;;;;3.63;0.90;;;;;;;9.62;100.00;98262.75;5018516;28;20044;-92
2023/03/14 03:46:41;;;;;;;5.75;1.00;;;;;;;9.78;100.00;98279.13;5016436;28;20046;-92
2023/03/14 03:49:12;;;;;;;5.88;1.05;;;;;;;9.69;100.00;98266.63;5017323;28;20042;-91
2023/03/14 03:51:59;;;;;;;6.45;1.30;;;;;;;9.62;100.00;98264.56;5013321;28;20089;-90
2023/03/14 03:54:28;;;;;;;6.70;1.45;;;;;;;9.54;100.00;98257.22;5026350;28;20065;-92
2023/03/14 03:56:57;;;;;;;5.90;1.10;;;;;;;9.39;100.00;98211.69;5038171;28;20037;-90
2023/03/14 03:59:30;;;;;;;3.15;0.80;;;;;;;9.61;100.00;98249.66;5017548;28;20100;-91
2023/03/14 04:02:11;;;;;;;5.85;1.20;;;;;;;9.55;100.00;98253.63;5032722;28;20089;-89
2023/03/14 04:04:39;;;;;;;2.28;0.90;;;;;;;9.60;100.00;98255.94;5031097;28;20092;-92
2023/03/14 04:07:18;;;;;;;3.47;1.20;;;;;;;9.55;100.00;98229.84;5034545;28;20045;-92
2023/03/14 04:09:46;;;;;;;4.65;1.25;;;;;;;9.58;100.00;98240.19;5037358;28;20026;-93
2023/03/14 04:12:29;;;;;;;3.70;1.15;;;;;;;9.74;100.00;98253.06;5038677;28;20042;-92
2023/03/14 04:14:56;;;;;;;5.22;1.27;;;;;;;9.69;100.00;98260.50;5019827;28;20048;-92
2023/03/14 04:17:26;;;;;;;8.00;1.17;;;;;;;9.65;100.00;98248.47;5038135;28;20026;-91
2023/03/14 04:19:54;;;;;;;4.88;1.10;;;;;;;9.67;100.00;98259.78;5027888;28;20483;-91
2023/03/14 04:22:24;;;;;;;4.15;0.93;;;;;;;9.69;100.00;98258.69;5023282;28;20046;-89
2023/03/14 04:24:51;;;;;;;5.45;1.00;;;;;;;9.58;100.00;98244.63;5021087;28;20061;-93
2023/03/14 04:27:19;;;;;;;3.97;1.42;;;;;;;9.54;100.00;98240.53;5012659;28;20073;-92
2023/03/14 04:29:47;;;;;;;3.10;1.30;;;;;;;9.55;100.00;98244.88;5021410;28;20110;-91
2023/03/14 04:32:23;;;;;;;2.35;1.15;;;;;;;9.51;100.00;98241.59;5017208;28;20045;-91
2023/03/14 04:34:54;;;;;;;4.03;1.20;;;;;;;9.62;100.00;98251.34;5012870;28;20096;-90
2023/03/14 04:37:24;;;;;;;2.85;0.85;;;;;;;9.64;100.00;98252.06;5048334;28;20041;-93
2023/03/14 04:39:52;;;;;;;6.15;1.23;;;;;;;9.28;100.00;98193.19;5030114;28;20040;-90
2023/03/14 04:42:20;;;;;;;5.68;1.40;;;;;;;9.32;100.00;98205.19;5025935;28;20314;-88
2023/03/14 04:44:51;;;;;;;4.03;1.13;;;;;;;9.28;100.00;98198.47;5035989;28;21764;-90
2023/03/14 04:47:21;;;;;;;2.28;0.95;;;;;;;9.63;100.00;98263.59;5031294;28;20034;-90
2023/03/14 04:49:54;;;;;;;5.85;1.35;;;;;;;9.63;100.00;98245.94;5031928;28;20041;-87
2023/03/14 04:52:26;;;;;;;6.15;1.10;;;;;;;9.64;100.00;98238.84;5035445;28;20057;-92
2023/03/14 04:55:01;;;;;;;2.85;1.00;;;;;;;9.47;100.00;98225.16;5025153;28;20037;-89
2023/03/14 04:57:36;;;;;;;4.85;1.48;;;;;;;9.18;100.00;98170.22;5032272;28;20096;-92
2023/03/14 05:00:11;;;;;;;3.67;1.00;;;;;;;9.03;100.00;98156.41;5013471;28;20069;-91
2023/03/14 05:02:42;;;;;;;4.32;1.05;;;;;;;9.65;100.00;98228.16;5022157;28;20069;-88
2023/03/14 05:05:08;;;;;;;5.53;1.13;;;;;;;9.43;100.00;98192.03;5018173;28;20041;-90
2023/03/14 05:07:40;;;;;;;2.15;0.90;;;;;;;9.08;100.00;98141.06;5026598;28;20080;-94
2023/03/14 05:10:22;;;;;;;6.35;1.15;;;;;;;9.47;100.00;98198.72;5026153;28;20101;-93
2023/03/14 05:13:04;;;;;;;3.75;0.75;;;;;;;9.37;100.00;98178.44;5030057;28;20038;-92
2023/03/14 05:15:32;;;;;;;3.83;0.98;;;;;;;9.50;100.00;98187.94;5048421;28;20108;-92
2023/03/14 05:18:14;;;;;;;4.22;1.40;;;;;;;9.70;100.00;98219.91;5027568;28;20103;-92
2023/03/14 05:20:51;;;;;;;2.97;1.00;;;;;;;9.24;100.00;98146.84;5033601;28;20049;-91
2023/03/14 05:23:31;;;;;;;4.47;0.77;;;;;;;9.69;100.00;98210.28;5040891;28;20037;-90
2023/03/14 05:26:16;;;;;;;5.95;1.20;;;;;;;9.54;100.00;98203.53;5032176;28;20034;-91
2023/03/14 05:29:17;;;;;;;6.30;0.80;;;;;;;9.43;100.00;98181.44;5160110;22;20059;-91
2023/03/14 05:32:04;;;;;;;5.75;1.08;;;;;;;9.21;100.00;98122.47;5062516;28;20032;-91
2023/03/14 05:34:35;;;;;;;3.35;0.80;;;;;;;9.44;100.00;98179.66;5046044;28;20046;-92
2023/03/14 05:37:12;;;;;;;5.43;1.30;;;;;;;9.40;100.00;98188.75;5051072;28;20096;-92
2023/03/14 05:39:40;;;;;;;2.53;0.70;;;;;;;9.57;100.00;98225.28;5055929;28;20025;-91
2023/03/14 05:42:22;;;;;;;5.45;0.98;;;;;;;9.40;100.00;98184.31;5040247;28;20034;-91
2023/03/14 05:44:50;;;;;;;5.97;0.90;;;;;;;9.33;100.00;98154.06;5042948;28;20048;-94
2023/03/14 05:47:20;;;;;;;3.47;0.82;;;;;;;9.29;100.00;98147.31;5052610;28;20050;-91
2023/03/14 05:49:51;;;;;;;5.22;1.65;;;;;;;9.27;100.00;98154.53;5056867;28;20037;-91
2023/03/14 05:52:32;;;;;;;5.43;1.10;;;;;;;9.52;100.00;98192.25;5050620;28;20044;-91
2023/03/14 05:55:00;;;;;;;4.53;0.80;;;;;;;9.43;100.00;98173.53;5345483;23;20030;-93
2023/03/14 05:57:28;;;;;;;3.53;1.02;;;;;;;9.27;100.00;98153.69;5038652;28;20052;-94
2023/03/14 06:00:31;;;;;;;4.65;0.98;;;;;;;9.39;100.00;98163.31;5087202;28;20777;-93
2023/03/14 06:02:59;;;;;;;4.93;0.93;;;;;;;9.58;100.00;98202.34;5073201;28;20048;-92
2023/03/14 06:05:34;;;;;;;4.55;0.82;;;;;;;9.57;100.00;98198.03;5071880;28;20048;-92
2023/03/14 06:08:16;;;;;;;4.80;0.98;;;;;;;9.55;100.00;98199.94;5070795;28;20045;-92
2023/03/14 06:10:47;;;;;;;3.88;0.73;;;;;;;9.47;100.00;98185.50;5081480;28;20040;-93
2023/03/14 06:13:19;;;;;;;2.45;0.70;;;;;;;8.91;100.00;98099.28;5077637;28;20045;-91
2023/03/14 06:15:48;;;;;;;3.75;0.80;;;;;;;9.55;100.00;98202.59;5077832;28;20029;-91
2023/03/14 06:18:25;;;;;;;2.60;1.15;;;;;;;9.51;100.00;98204.63;5076902;28;20033;-93
2023/03/14 06:20:56;;;;;;;3.42;1.02;;;;;;;9.17;100.00;98136.88;5053996;28;20040;-93
2023/03/14 06:23:38;;;;;;;3.40;1.55;;;;;;;9.20;100.00;98126.06;5081835;28;20096;-92
2023/03/14 06:26:08;;;;;;;3.92;0.90;;;;;;;9.58;100.00;98203.19;5069710;28;20277;-94
2023/03/14 06:28:38;;;;;;;3.33;1.05;;;;;;;9.46;100.00;98178.53;5057256;28;20092;-93
2023/03/14 06:31:32;;;;;;;5.68;0.80;;;;;;;9.55;100.00;98170.88;5072629;28;20041;-92
2023/03/14 06:34:23;;;;;;;3.97;0.73;;;;;;;9.14;100.00;98106.25;5079719;28;20033;-93
2023/03/14 06:37:23;;;;;;;5.45;0.88;;;;;;;9.58;100.00;98182.06;5079630;28;20044;-90
2023/03/14 06:40:10;;;;;;;2.85;0.80;;;;;;;9.24;100.00;98127.53;5085365;28;20033;-90
2023/03/14 06:43:11;;;;;;;4.47;0.98;;;;;;;9.62;100.00;98172.91;5065691;28;20040;-94
2023/03/14 06:45:50;;;;;;;4.75;0.90;;;;;;;9.65;100.00;98167.38;5092785;28;20037;-92
2023/03/14 06:48:41;;;;;;;7.82;1.65;;;;;;;9.10;100.00;98076.63;5062246;28;20112;-94
2023/03/14 06:51:45;;;;;;;3.92;0.90;;;;;;;9.67;100.00;98162.84;5082598;28;20036;-92
2023/03/14 06:55:03;;;;;;;6.38;1.00;;;;;;;9.67;100.00;98151.41;5085759;28;20070;-90
2023/03/14 06:57:51;;;;;;;3.55;0.90;;;;;;;9.44;100.00;98108.34;5079088;28;20041;-91
2023/03/14 07:00:38;;;;;;;5.35;0.82;;;;;;;9.64;100.00;98130.50;5084980;28;20051;-90
2023/03/14 07:03:31;;;;;;;4.47;0.90;;;;;;;9.60;100.00;98139.66;5158182;22;20092;-94
2023/03/14 07:06:11;;;;;;;6.50;1.17;;;;;;;9.75;100.00;98171.00;5078727;28;20052;-91
2023/03/14 07:08:42;;;;;;;4.60;0.90;;;;;;;9.76;100.00;98182.41;5087226;28;20045;-91
2023/03/14 07:11:22;;;;;;;;;;;;;;;9.77;100.00;98184.06;5053791;28;20056;-91
2023/03/14 07:13:48;;;;;;;2.58;0.82;;;;;;;9.86;100.00;98178.09;5070979;28;19972;-92
2023/03/14 07:16:15;;;;;;;4.22;0.73;;;;;;;9.94;100.00;98193.31;5053832;28;20053;-93
2023/03/14 07:18:44;;;;;;;4.05;1.00;;;;;;;9.74;100.00;98163.19;5056985;28;20049;-92
2023/03/14 07:21:26;;;;;;;3.88;0.60;;;;;;;9.71;100.00;98163.44;5058448;28;20083;-92
2023/03/14 07:24:03;;;;;;;2.70;0.77;;;;;;;9.66;100.00;98153.22;5058037;28;20029;-91
2023/03/14 07:26:49;;;;;;;2.97;0.57;;;;;;;9.93;100.00;98168.69;5053339;28;20080;-93
2023/03/14 07:29:20;;;;;;;3.80;0.60;;;;;;;10.14;100.00;98192.59;5068372;28;20045;-93
2023/03/14 07:32:06;;;;;;;2.33;0.65;;;;;;;10.14;100.00;98193.44;5062828;28;20056;-93
2023/03/14 07:34:46;;;;;;;5.53;0.83;;;;;;;9.98;100.00;98170.97;5049486;28;20044;-92
2023/03/14 07:37:27;;;;;;;3.38;0.60;;;;;;;10.09;100.00;98200.88;5060387;28;20044;-93
2023/03/14 07:39:57;;;;;;;2.45;0.50;;;;;;;9.94;100.00;98180.94;5068397;28;20068;-92
2023/03/14 07:42:48;;;;;;;3.78;0.90;;;;;;;10.07;100.00;98183.47;5065769;28;20041;-92
2023/03/14 07:45:28;;;;;;;4.40;0.80;;;;;;;10.04;100.00;98170.50;5048284;28;20123;-94
2023/03/14 07:48:09;;;;;;;2.58;0.60;;;;;;;10.23;100.00;98191.06;5059407;28;20162;-92
2023/03/14 07:50:56;;;;;;;1.98;0.47;;;;;;;10.14;100.00;98188.13;5059050;28;20117;-92
2023/03/14 07:53:39;;;;;;;1.88;0.80;;;;;;;10.00;100.00;98180.47;5057336;28;20033;-92
2023/03/14 07:56:23;;;;;;;4.00;0.70;;;;;;;10.02;100.00;98175.06;5043021;28;20100;-93
2023/03/14 07:59:32;;;;;;;3.38;1.08;;;;;;;10.12;100.00;98198.00;5060095;28;20044;-92
2023/03/14 08:02:21;;;;;;;3.13;0.93;;;;;;;10.17;100.00;98197.63;5042848;28;20109;-92
2023/03/14 08:05:04;;;;;;;4.47;0.82;;;;;;;10.03;100.00;98168.81;5035566;28;20060;-91
2023/03/14 08:07:54;;;;;;;4.20;0.75;;;;;;;10.28;100.00;98197.63;5040133;28;20044;-93
2023/03/14 08:10:24;;;;;;;2.38;0.77;;;;;;;10.21;100.00;98169.19;5035864;28;20073;-93
2023/03/14 08:13:25;;;;;;;3.70;0.70;;;;;;;10.35;100.00;98203.28;5014866;28;20128;-92
2023/03/14 08:16:13;;;;;;;3.22;0.70;;;;;;;10.01;100.00;98155.72;5045633;28;20053;-93
2023/03/14 08:19:26;;;;;;;3.85;1.10;;;;;;;10.21;100.00;98182.41;5020482;28;20037;-91
2023/03/14 08:22:19;;;;;;;;;;;;;;;10.33;100.00;98199.91;5029309;28;20042;-90
2023/03/14 08:25:26;;;;;;;2.17;1.42;;;;;;;10.24;100.00;98198.00;5062846;28;19977;-91
2023/03/14 08:28:12;;;;;;;3.13;1.00;;;;;;;10.27;100.00;98203.88;5030264;28;20073;-92
2023/03/14 08:31:00;;;;;;;4.00;0.82;;;;;;;9.66;100.00;98094.25;5037911;28;20045;-91
2023/03/14 08:33:44;;;;;;;2.63;0.75;;;;;;;10.27;100.00;98189.81;5029726;28;20037;-91
2023/03/14 08:36:25;;;;;;;;;;;;;;;10.29;100.00;98196.66;5053693;28;20037;-91
2023/03/14 08:39:12;;;;;;;4.25;1.00;;;;;;;9.77;100.00;98107.44;5051451;28;19924;-90
2023/03/14 08:41:50;;;;;;;5.00;0.93;;;;;;;10.13;100.00;98138.84;5041645;28;20048;-92
2023/03/14 08:44:45;;;;;;;2.75;0.88;;;;;;;9.95;100.00;98100.66;5047269;28;20029;-91
2023/03/14 08:47:36;;;;;;;4.65;0.95;;;;;;;10.35;100.00;98153.03;5263193;22;20061;-90
2023/03/14 08:50:28;;;;;;;8.63;2.88;;;;;;;10.11;100.00;98146.06;5033122;28;20057;-92
2023/03/14 08:53:10;;;;;;;1.75;0.88;;;;;;;10.40;100.00;98183.41;5050712;28;20037;-92
2023/03/14 08:56:18;;;;;;;5.53;2.13;;;;;;;10.61;100.00;98188.75;5049803;28;20099;-92
2023/03/14 08:58:59;;;;;;;2.78;0.88;;;;;;;10.44;100.00;98147.81;5026749;28;20034;-91
2023/03/14 09:01:42;;;;;;;2.58;0.95;;;;;;;10.17;100.00;98116.50;5005816;28;20069;-91
2023/03/14 09:04:25;;;;;;;3.30;1.00;;;;;;;10.69;100.00;98194.28;4988310;28;20221;-92
2023/03/14 09:07:14;;;;;;;3.47;0.70;;;;;;;10.66;100.00;98183.94;4983570;28;20038;-91
2023/03/14 09:09:55;;;;;;;2.25;0.73;;;;;;;10.54;100.00;98153.19;5000161;28;20042;-92
2023/03/14 09:12:39;;;;;;;3.20;0.60;;;;;;;10.79;100.00;98195.19;4970393;28;20092;-92
2023/03/14 09:15:09;;;;;;;2.95;0.98;;;;;;;10.83;100.00;98201.94;5006493;28;20089;-91
2023/03/14 09:17:53;;;;;;;2.70;0.90;;;;;;;10.78;100.00;98176.78;5071537;22;20040;-92
2023/03/14 09:20:36;;;;;;;1.52;0.50;;;;;;;11.17;100.00;98192.00;5055352;28;20036;-92
2023/03/14 09:23:25;;;;;;;2.67;0.90;;;;;;;11.17;100.00;98144.31;5075466;28;20039;-93
2023/03/14 09:26:00;;;;;;;2.22;0.70;;;;;;;11.54;100.00;98192.34;5015390;28;20476;-93
2023/03/14 09:28:52;;;;;;;1.33;0.50;;;;;;;11.70;100.00;98196.34;5067455;28;20043;-91
2023/03/14 09:31:33;;;;;;;0.88;0.68;;;;;;;11.80;100.00;98202.56;5065714;28;20040;-92
2023/03/14 09:34:24;;;;;;;3.63;0.80;;;;;;;11.69;100.00;98197.31;5090432;28;20040;-92
2023/03/14 09:37:07;;;;;;;1.80;0.63;;;;;;;11.75;100.00;98210.03;5065702;28;20045;-91
2023/03/14 09:39:44;;;;;;;1.52;0.52;;;;;;;11.64;100.00;98196.88;5071747;28;20547;-92
2023/03/14 09:42:27;;;;;;;1.17;0.52;;;;;;;11.76;100.00;98214.41;5057950;28;20040;-93
2023/03/14 09:45:26;;;;;;;0.80;0.60;;;;;;;11.90;100.00;98219.34;5058546;28;20121;-93
2023/03/14 09:48:18;;;;;;;1.52;0.80;;;;;;;11.62;100.00;98204.13;5046973;28;20072;-93
2023/03/14 09:51:20;;;;;;;1.27;0.60;;;;;;;11.53;100.00;98208.38;5077926;28;20039;-92
2023/03/14 09:53:54;;;;;;;1.63;0.82;;;;;;;11.49;100.00;98197.19;5024219;28;20052;-92
2023/03/14 09:56:36;;;;;;;2.22;0.80;;;;;;;11.36;100.00;98201.88;5046350;28;20066;-92
2023/03/14 10:05:01;;;;;;;2.50;0.70;;;;;;;11.85;100.00;98209.13;5037060;28;20053;-93
2023/03/14 10:07:57;;;;;;;2.35;1.00;;;;;;;12.08;100.00;98211.59;5007246;28;20037;-92
2023/03/14 10:10:53;;;;;;;7.30;1.00;;;;;;;11.80;100.00;98165.44;4989338;28;20037;-92
2023/03/14 10:14:05;;;;;;;2.15;0.75;;;;;;;11.96;100.00;98194.97;5014957;28;20391;-91
2023/03/14 10:16:55;;;;;;;2.58;0.77;;;;;;;12.14;100.00;98203.94;5038274;28;20125;-92
2023/03/14 10:20:05;;;;;;;1.73;0.65;;;;;;;11.94;100.00;98196.91;5035217;28;20179;-92
2023/03/14 10:22:38;;;;;;;2.10;0.95;;;;;;;12.01;100.00;98199.84;5043114;28;20038;-93
2023/03/14 10:25:33;;;;;;;1.25;0.93;;;;;;;12.12;100.00;98199.75;5035426;28;20058;-92
2023/03/14 10:28:33;;;;;;;1.17;0.80;;;;;;;12.14;100.00;98195.97;5019656;28;20053;-92
2023/03/14 10:31:48;;;;;;;1.30;0.65;;;;;;;12.11;100.00;98190.13;5036265;28;20579;-92
2023/03/14 10:34:57;;;;;;;2.67;1.10;;;;;;;12.18;100.00;98201.84;5041046;28;20041;-92
2023/03/14 10:38:12;;;;;;;1.30;0.70;;;;;;;12.13;100.00;98188.97;5044074;28;20115;-93
2023/03/14 10:41:01;;;;;;;1.90;0.60;;;;;;;12.16;100.00;98183.41;5031330;28;20041;-92
2023/03/14 10:43:53;;;;;;;2.17;0.73;;;;;;;12.24;100.00;98194.19;5037038;28;20029;-93
2023/03/14 10:46:33;;;;;;;2.13;0.70;;;;;;;12.25;100.00;98181.78;5022146;28;20076;-93
2023/03/14 10:49:27;;;;;;;0.65;0.65;;;;;;;12.27;100.00;98185.13;5038326;28;20083;-94
2023/03/14 10:52:51;;;;;;;2.38;0.70;;;;;;;12.27;100.00;98207.22;5038217;28;20049;-93
2023/03/14 10:56:06;;;;;;;1.77;0.80;;;;;;;12.04;100.00;98168.59;5046521;28;20039;-92
2023/03/14 10:59:47;;;;;;;1.17;0.90;;;;;;;12.02;100.00;98197.06;5043259;28;20052;-92
2023/03/14 11:07:28;;;;;;;2.72;1.08;;;;;;;11.80;100.00;98208.72;5039341;28;20111;-89
2023/03/14 11:10:40;;;;;;;2.20;0.90;;;;;;;11.56;100.00;98206.31;5044171;28;20052;-91
2023/03/14 11:13:43;;;;;;;2.80;1.48;;;;;;;11.48;100.00;98213.25;5038157;28;20059;-93
2023/03/14 11:16:49;;;;;;;2.75;1.70;;;;;;;11.43;100.00;98208.34;5042666;28;20068;-93
2023/03/14 11:20:08;;;;;;;1.63;1.30;;;;;;;11.33;100.00;98210.09;5048514;28;20037;-90
2023/03/14 11:26:46;;;;;;;2.13;1.40;;;;;;;10.98;100.00;98186.56;5041839;28;20442;-92
2023/03/14 11:30:29;;;;;;;2.50;1.48;;;;;;;10.97;100.00;98219.31;5042190;28;20450;-92
2023/03/14 11:34:05;;;;;;;5.38;2.25;;;;;;;10.75;100.00;98198.22;5052621;28;20033;-94
2023/03/14 11:37:06;;;;;;;4.72;2.00;;;;;;;10.73;100.00;98210.72;4986206;28;20080;-93
2023/03/14 11:40:22;;;;;;;39.95;8.38;;;;;;;10.18;100.00;98173.75;5039114;28;20065;-92
2023/03/14 11:43:29;;;;;;;2.90;2.10;;;;;;;10.16;100.00;98183.56;5029563;28;20045;-93
2023/03/14 11:46:47;;;;;;;6.82;1.92;;;;;;;9.84;100.00;98137.72;5023889;28;20057;-91
2023/03/14 11:57:01;;;;;;;3.38;1.60;;;;;;;10.32;100.00;98211.47;5025554;28;20041;-91
2023/03/14 11:59:51;;;;;;;1.73;1.48;;;;;;;10.45;100.00;98223.56;5039742;28;20041;-92
2023/03/14 12:03:00;;;;;;;3.53;1.23;;;;;;;10.42;100.00;98225.63;5020208;28;20072;-92
2023/03/14 12:06:23;;;;;;;2.50;1.85;;;;;;;10.34;100.00;98225.41;4982654;28;20046;-92
2023/03/14 12:09:08;;;;;;;2.95;1.63;;;;;;;10.20;100.00;98329.66;4994673;28;20043;-91
2023/03/14 12:12:23;;;;;;;1.95;0.30;;;;;;;9.07;100.00;98337.38;4993771;28;20066;-90
2023/03/14 12:15:19;;;;;;;2.65;0.55;;;;;;;8.45;100.00;98345.41;4982621;28;20123;-89
2023/03/14 12:17:55;;;;;;;3.50;0.50;;;;;;;8.22;100.00;98354.88;4997620;28;20265;-90
2023/03/14 12:20:50;;;;;;;2.45;0.40;;;;;;;8.02;100.00;98347.53;4992110;28;20084;-86
2023/03/14 12:23:16;;;;;;;1.83;0.30;;;;;;;8.20;100.00;98387.56;4982547;28;20514;-88
2023/03/14 12:25:44;;;;;;;3.05;0.40;;;;;;;8.15;100.00;98393.19;4976406;28;20054;-85
2023/03/14 12:28:29;;;;;;;0.60;0.40;;;;;;;8.13;100.00;98399.50;4992937;28;20121;-87
2023/03/14 12:31:29;;;;;;;0.70;0.40;;;;;;;8.21;100.00;98434.09;4994372;28;20057;-86
2023/03/14 12:34:33;;;;;;;2.25;0.50;;;;;;;8.20;100.00;98425.34;4988591;28;20043;-88
2023/03/14 12:37:48;;;;;;;0.20;0.20;;;;;;;8.35;100.00;98445.41;5017925;28;20161;-88
2023/03/14 12:40:30;;;;;;;0.70;0.50;;;;;;;8.43;100.00;98453.66;5016197;28;20041;-85
2023/03/14 12:43:31;;;;;;;0.40;0.40;;;;;;;8.55;100.00;98451.94;5017688;28;20049;-87
2023/03/14 12:46:34;;;;;;;1.10;0.50;;;;;;;8.76;100.00;98486.56;5034316;28;20199;-85
2023/03/14 12:49:08;;;;;;;2.63;0.80;;;;;;;9.04;100.00;98496.00;5031198;28;20194;-87
2023/03/14 12:51:59;;;;;;;2.03;0.35;;;;;;;9.08;100.00;98471.09;5043823;28;20080;-84
2023/03/14 12:55:14;;;;;;;0.47;0.30;;;;;;;9.31;100.00;98514.31;5040002;28;20060;-87
2023/03/14 12:58:12;;;;;;;0.50;0.50;;;;;;;9.28;100.00;98525.13;5019157;28;20048;-88
2023/03/14 13:00:56;;;;;;;0.70;0.50;;;;;;;9.19;100.00;98558.31;5024555;28;20049;-90
2023/03/14 13:03:40;;;;;;;0.73;0.60;;;;;;;8.94;100.00;98547.78;5032925;28;20085;-92
2023/03/14 13:06:53;;;;;;;0.57;0.43;;;;;;;9.10;100.00;98567.72;5008857;28;20325;-89
2023/03/14 13:09:49;;;;;;;0.75;0.47;;;;;;;9.04;100.00;98573.44;5021820;28;20049;-87
2023/03/14 13:21:54;;;;;;;;;;;;;;;;;;;;;
2023/03/14 13:25:16;;;;;;;1.38;0.60;;;;;;;9.21;100.00;98621.56;5660036;23;20154;-92